TGITANGIER ISLAND
METARs for airports near TGI, sorted by distance:
N 0 nm 5' KTGI 142035Z 16010G14KT 10SM CLR 32/24 A2999
SE 15 nm 47' KMFV 142215Z 16005KT 10SM CLR A2999
E 26 nm 40' KWAL 142154Z 18009KT 10SM CLR 29/24 A3000
NW 33 nm 38' KNHK 142152Z 13007KT 10SM SCT050 BKN240 33/25 A2995
NE 38 nm 52' KSBY 142154Z 15007KT 10SM CLR 30/23 A2998
SW 40 nm 20' KFYJ 142215Z 00000KT 5SM CLR 33/24 A2997
W 42 nm 135' KXSA 142215Z 17004KT 10SM CLR 34/24 A2998
N 42 nm 19' KCGE 142205Z 00000KT 10SM SCT055 30/24 A2996
S 47 nm 8' KLFI 142155Z 12007KT 10SM CLR 32/25 A2997
SW 47 nm 42' KPHF 142154Z 23006KT 10SM CLR 34/23 A2998
NE 50 nm 15' KOXB 142053Z 21005KT 10SM CLR 28/24 A3001
SW 50 nm 11' KFAF 130055Z 17007KT 5SM RA OVC035 23/22 A3018
S 55 nm 14' KNGU 142159Z 18004KT 9SM SCT050 SCT250 34/24 A3000
S 56 nm 26' KORF 142151Z 23007KT 10SM FEW042 FEW090 33/23 A2997
N 58 nm 72' KESN 142145Z 22005KT 10SM CLR 30/22 A2997
NE 59 nm 53' KGED 142154Z 18007KT 10SM CLR 31/23 A2998
S 60 nm 21' KNTU 142156Z 18008KT 10SM FEW040 SCT250 32/26 A2998
W 65 nm 167' KRIC 142154Z 19009KT 10SM FEW050 35/22 A2996
S 66 nm 28' KPVG 142156Z 10SM CLR 33/24 A3001
W 68 nm 206' KOFP 142154Z 23007KT 10SM CLR 36/20 A2997
SW 69 nm 111' KAKQ 142154Z 23006KT 9SM CLR 34/24 A2998
S 71 nm 18' KCPK 142215Z 22010G14KT 10SM SCT032 30/22 A3002
NW 71 nm 279' KADW 142155Z 13010KT 10SM CLR 31/21 A2993
W 73 nm 85' KEZF 142215Z 00000KT 10SM CLR 35/18 A2995
NW 73 nm 10' KNYG 142156Z 5SM CLR 36/21 A2995
S 74 nm 70' KSFQ 142215Z 16005KT 10SM CLR 29/22 A3003
W 76 nm 236' KFCI 142156Z 21005KT 10SM CLR 34/22 A2998
NW 77 nm 219' KRMN 142215Z 21005KT 10SM CLR 35/14 A2996
NW 77 nm 73' KDAA 142155Z 18005KT 10SM CLR 36/17 A2992
NW 78 nm 14' KDCA 142152Z 20007KT 10SM FEW080 FEW250 37/17 A2993
SW 80 nm 40' KFKN 142215Z 17008G15KT 10SM CLR 30/23 A3002
SW 81 nm 192' KPTB 142215Z 15003KT 10SM CLR 33/23 A2999
NW 81 nm 48' KCGS 142205Z 12006KT 10SM CLR 33/23 A2995
N 82 nm 28' KDOV 142155Z 20014KT 10SM FEW170 33/21 A2994
NW 83 nm 150' KFME 142209Z 17006KT 10SM CLR 31/22 A2998
S 85 nm 17' KONX 142215Z 00000KT 10SM CLR 30/25 A3002
N 86 nm 143' KBWI 142154Z 17006KT 10SM FEW065 FEW250 34/22 A2994
NE 87 nm 21' KWWD 142156Z 17010KT 10SM CLR 28/22 A2999
NW 89 nm 192' KHEF 142156Z 21007KT 10SM CLR 35/19 A2996
N 92 nm 21' KMTN 142155Z 12010KT 10SM CLR 31/23 A2997
NW 92 nm 336' KHWY 142215Z 18005KT 10SM CLR 35/17 A2996
W 94 nm 493' KLKU 142215Z 13003KT 10SM SCT100 33/21 A2998
S 94 nm 10' KECG 142210Z 28014G31KT 10SM -TSRA FEW027 SCT038 BKN110 26/22 A3004
NW 96 nm 312' KIAD 142152Z 21010KT 10SM FEW090 FEW140 35/18 A2995
NW 97 nm 315' KCJR 142215Z 17005KT 10SM CLR 35/17 A2997
NW 97 nm 538' KGAI 142156Z VRB03KT 3SM BR OVC070 A2997
SW 98 nm 126' KEMV 142215Z 00000KT 10SM CLR 33/24 A3000
N 98 nm 44' KAPG 122034Z VRB05KT 7SM -RA SCT030 OVC050 26/22 A3014
TAFs for airports near TGI, sorted by distance:
NW 33 nm 38' KNHK TAF KNHK 1415/1515 VRB06KT 9999 FEW030 FEW100 QNH2995INS
  FM141700 15008KT 9999 VCTS FEW040CB SCT060 SCT070 QNH2993INS
  BECMG 1504/1506 23008KT 9999 NSW FEW060 FEW080 QNH2989INS TX32/1418Z TN26/1509Z FN00268
NE 38 nm 52' KSBY KSBY 141722Z 1418/1518 17008KT P6SM SCT060
  FM142300 17003KT P6SM SKC
  FM151400 24007KT P6SM SKC
S 47 nm 8' KLFI TAF
  AMD KLFI 141405Z 1414/1517 VRB06KT 9999 FEW095 QNH3006INS
  BECMG 1416/1417 VRB06KT 9999 NSW FEW085 SCT120 QNH2992INS TX33/1417Z TN31/1414Z LAST NO
  AMDS AFT 1414 NEXT 1509
SW 47 nm 42' KPHF KPHF 141722Z 1418/1518 22007KT P6SM SCT060
  FM142300 22005KT P6SM SKC
SW 50 nm 11' KFAF TAF KFAF 121800Z 1218/1324 18009KT 6000 -SHRA BR VCTS BKN025CB BKN040 OVC060 QNH3006INS
  TEMPO 1218/1223 VRB12G18KT 8000 -TSRA SCT015CB BKN020 OVC035
  BECMG 1223/1224 16006KT 8000 -SHRA BR BKN022 OVC034 QNH3007INS TX28/1318Z TN24/1308Z
S 55 nm 14' KNGU TAF KNGU 1415/1515 27006KT 9999 FEW030 FEW070 QNH2998INS
  BECMG 1419/1421 15010KT 9999 VCTS FEW035CB SCT050 SCT060 QNH2994INS
  BECMG 1503/1505 22008KT 9999 NSW FEW030 SCT040 QNH2993INS TX31/1418Z TN26/1509Z FN00268
S 56 nm 26' KORF KORF 141722Z 1418/1518 06006KT P6SM SCT060
  FM142100 15008KT P6SM FEW060
  FM150300 22009KT P6SM SKC
S 60 nm 21' KNTU TAF KNTU 1415/1515 VRB04KT 9999 FEW035 FEW200 QNH2999INS
  FM142100 15009KT 9999 VCTS FEW030CB SCT060 QNH2996INS
  BECMG 1504/1506 20008KT 9999 NSW FEW030 SCT040 QNH2993INS TX30/1418Z TN25/1509Z FN00268
W 65 nm 167' KRIC KRIC 141722Z 1418/1518 19008KT P6SM SCT060
  FM142300 22005KT P6SM SKC
NW 71 nm 279' KADW TAF
  AMD KADW 141910Z 1419/1523 27012KT 9999 VCTS SCT050CB QNH2997INS
  TEMPO 1419/1421 29012G18KT 8000 -TSRA BKN050CB
  BECMG 1420/1421 22006KT 9999 NSW SCT050 QNH2994INS
  BECMG 1500/1501 17006KT 9999 FEW070 QNH2992INS
  BECMG 1506/1507 26006KT 9999 SCT060 SCT250 QNH2986INS
  BECMG 1518/1519 23012KT 9999 -SHRA VCTS BKN040CB QNH2983INS TX38/1419Z TN23/1509Z
NW 73 nm 10' KNYG TAF KNYG 1321/1421 VRB06KT 9999 SKC QNH3005INS
  FM140600 VRB06KT 9999 SCT200 QNH2995INS LAST NO
  AMDS AFT 1321 NEXT 1509 AUTOMATED SENSOR METWATCH 1321 TIL 1511 T32/1321Z T22/1411Z
NW 77 nm 73' KDAA TAF KDAA 121200Z 1212/1318 VRB05KT 9999 VCSH SCT030 BKN060 OVC100 QNH2996INS
  BECMG 1212/1213 03006KT 9000 -SHRA FEW015 BKN030 OVC070 QNH3000INS
  BECMG 1213/1214 04007KT 8000 -SHRA VCTS SCT015CB OVC030 QNH3011INS
  TEMPO 1214/1301 VRB12G20KT 4800 TSRA BR SCT008 OVC015CB
  BECMG 1302/1303 VRB06KT 9000 -RA OVC010 QNH3010INS
  BECMG 1306/1307 VRB05KT 4800 -RA BR OVC008 QNH3011INS
  BECMG 1312/1313 16007KT 8000 -SHRA VCTS SCT009 BKN015CB OVC030 QNH3012INS TX27/1220Z TN24/1310Z
NW 78 nm 14' KDCA KDCA 142102Z 1421/1524 21008G16KT P6SM VCTS SCT060CB SCT250
  FM142200 08008G16KT P6SM FEW200
  FM150500 17005KT P6SM FEW200
  FM151600 26005KT P6SM FEW200
N 82 nm 28' KDOV TAF KDOV 141600Z 1416/1522 18006KT 9999 SCT095 QNH3005INS
  BECMG 1417/1418 22006KT 9999 BKN100 QNH2997INS
  TEMPO 1418/1422 9000 -SHRA
  BECMG 1502/1503 23009KT 9999 SCT080 QNH2993INS TX33/1420Z TN24/1510Z
N 86 nm 143' KBWI TAF
  AMD KBWI 142102Z 1421/1524 18009G15KT P6SM VCTS SCT060CB SCT250
  FM142300 20004KT P6SM FEW200
  FM150500 17004KT P6SM FEW250
  FM151600 25005KT P6SM FEW200
N 92 nm 21' KMTN KMTN 142001Z 1420/1518 15012G20KT P6SM FEW250
  FM150000 20005KT P6SM FEW250
  FM150400 17005KT P6SM FEW250
  FM151600 21005KT P6SM FEW200
S 94 nm 10' KECG TAF
  AMD KECG 142205Z 1422/1518 19007KT P6SM VCTS SCT060CB
  TEMPO 1422/1424 VRB15KT 4SM -TSRA OVC040CB
  FM150000 22006KT P6SM SKC
NW 96 nm 312' KIAD KIAD 142102Z 1421/1524 23009KT P6SM FEW250
  FM142300 21005KT P6SM FEW250
  FM150300 18004KT P6SM FEW250
  FM151600 26005KT P6SM FEW250

Shortcut to this page: http://wxbay.com.

Data may contain errors.